Estación Meteorológica Peña el Pijo (Robertgarden) [ 01/30/23 15:18:07 CET ]

Fecha Hora Presion(HPa) Temp (°C) Humedad % Rocio (°C) Viento ( m/s) Direccion Lluvia 1Hora(mm) Lluvia 24H(mm) LLuvia Total(mm)
2010-Jan-05 01:01:13 994.300 3.5 93 2.5       1.03 62.16
2010-Jan-05 02:03:18 993.400 5.1 94 4.2       1.03 62.16
2010-Jan-05 03:01:17 993.100 4.0 93 3.0         62.16
2010-Jan-05 04:01:16 992.800 2.9 93 1.9         62.16
2010-Jan-05 05:01:17 992.100 2.6 93 1.6         62.16
2010-Jan-05 06:01:15 991.600 2.8 94 1.9         62.16
2010-Jan-05 07:01:18 991.900 3.3 94 2.4         62.16
2010-Jan-05 08:01:16 991.700 3.3 94 2.4         62.16
2010-Jan-05 09:01:13 992.000 4.1 94 3.2         62.16
2010-Jan-05 10:01:14 992.400 4.7 94 3.8         62.16
2010-Jan-05 11:01:13 992.800 5.8 92 4.6         62.16
2010-Jan-05 12:01:19 992.900 7.4 85 5.0         62.16
2010-Jan-05 13:01:13 992.800 10.2 74 5.8 1.7 SE     62.16
2010-Jan-05 14:01:12 992.500 9.3 76 5.2         62.16
2010-Jan-05 15:01:12 992.900 8.9 75 4.7         62.16
2010-Jan-05 16:01:15 993.200 10.1 73 5.5 2.2 SW     62.16
2010-Jan-05 17:01:13 993.700 7.8 78 4.2 0.1 ESE     62.16
2010-Jan-05 18:01:12 994.200 7.1 81 4.1         62.16
2010-Jan-05 19:01:12 994.600 6.8 81 3.8         62.16
2010-Jan-05 20:01:14 995.100 5.9 84 3.4         62.16
2010-Jan-05 21:01:12 994.900 6.1 80 2.9         62.16
2010-Jan-05 22:01:13 995.200 5.9 79 2.5         62.16
2010-Jan-05 23:01:16 995.900 5.6 81 2.6         62.16

Temperatura Máxima:10°    Temperatura Mínima:
Presión Máxima:995.900 Hpa    Presión Mínima:991.600 Hpa


Volver